sensor_id;sensor_type;location;lat;lon;timestamp;pressure;altitude;pressure_sealevel;temperature;humidity
6393;BME280;3229;42.674;23.282;2023-02-19T00:02:11;94905.34;;;11.65;50.29
6393;BME280;3229;42.674;23.282;2023-02-19T00:04:38;94918.28;;;11.64;50.06
6393;BME280;3229;42.674;23.282;2023-02-19T00:07:04;94905.63;;;11.62;50.29
6393;BME280;3229;42.674;23.282;2023-02-19T00:09:33;94924.63;;;11.60;50.30
6393;BME280;3229;42.674;23.282;2023-02-19T00:11:59;94906.84;;;11.58;50.24
6393;BME280;3229;42.674;23.282;2023-02-19T00:14:26;94908.59;;;11.58;50.39
6393;BME280;3229;42.674;23.282;2023-02-19T00:16:53;94895.91;;;11.56;50.25
6393;BME280;3229;42.674;23.282;2023-02-19T00:19:20;94909.69;;;11.55;50.28
6393;BME280;3229;42.674;23.282;2023-02-19T00:21:47;94903.22;;;11.51;50.35
6393;BME280;3229;42.674;23.282;2023-02-19T00:24:15;94887.31;;;11.47;50.57
6393;BME280;3229;42.674;23.282;2023-02-19T00:26:44;94899.03;;;11.50;50.50
6393;BME280;3229;42.674;23.282;2023-02-19T00:29:13;94880.31;;;11.40;50.75
6393;BME280;3229;42.674;23.282;2023-02-19T00:31:40;94879.25;;;11.42;50.69
6393;BME280;3229;42.674;23.282;2023-02-19T00:34:08;94879.38;;;11.41;50.70
6393;BME280;3229;42.674;23.282;2023-02-19T00:36:36;94884.38;;;11.42;50.66
6393;BME280;3229;42.674;23.282;2023-02-19T00:39:04;94846.13;;;11.21;50.70
6393;BME280;3229;42.674;23.282;2023-02-19T00:41:31;94886.38;;;11.39;50.77
6393;BME280;3229;42.674;23.282;2023-02-19T00:44:01;94892.47;;;11.38;50.53
6393;BME280;3229;42.674;23.282;2023-02-19T00:46:30;94873.06;;;11.35;50.86
6393;BME280;3229;42.674;23.282;2023-02-19T00:48:58;94865.50;;;11.34;50.65
6393;BME280;3229;42.674;23.282;2023-02-19T00:51:27;94868.06;;;11.34;50.86
6393;BME280;3229;42.674;23.282;2023-02-19T00:53:54;94865.66;;;11.32;50.77
6393;BME280;3229;42.674;23.282;2023-02-19T00:56:21;94865.78;;;11.30;50.85
6393;BME280;3229;42.674;23.282;2023-02-19T00:58:48;94849.09;;;11.26;50.79
6393;BME280;3229;42.674;23.282;2023-02-19T01:01:17;94859.06;;;11.29;50.92
6393;BME280;3229;42.674;23.282;2023-02-19T01:03:44;94848.97;;;11.28;50.93
6393;BME280;3229;42.674;23.282;2023-02-19T01:06:13;94811.69;;;11.06;50.96
6393;BME280;3229;42.674;23.282;2023-02-19T01:08:39;94852.59;;;11.25;51.16
6393;BME280;3229;42.674;23.282;2023-02-19T01:11:08;94850.84;;;11.26;51.20
6393;BME280;3229;42.674;23.282;2023-02-19T01:13:35;94843.97;;;11.26;51.07
6393;BME280;3229;42.674;23.282;2023-02-19T01:16:03;94849.09;;;11.26;50.98
6393;BME280;3229;42.674;23.282;2023-02-19T01:18:32;94826.06;;;11.17;51.06
6393;BME280;3229;42.674;23.282;2023-02-19T01:21:03;94838.19;;;11.24;51.02
6393;BME280;3229;42.674;23.282;2023-02-19T01:23:31;94843.03;;;11.27;51.14
6393;BME280;3229;42.674;23.282;2023-02-19T01:25:58;94851.94;;;11.23;50.94
6393;BME280;3229;42.674;23.282;2023-02-19T01:28:25;94862.84;;;11.25;51.02
6393;BME280;3229;42.674;23.282;2023-02-19T01:30:52;94875.38;;;11.28;51.12
6393;BME280;3229;42.674;23.282;2023-02-19T01:33:19;94818.94;;;11.01;51.08
6393;BME280;3229;42.674;23.282;2023-02-19T01:35:47;94879.69;;;11.28;50.98
6393;BME280;3229;42.674;23.282;2023-02-19T01:38:14;94885.75;;;11.27;51.14
6393;BME280;3229;42.674;23.282;2023-02-19T01:40:40;94888.31;;;11.27;51.16
6393;BME280;3229;42.674;23.282;2023-02-19T01:43:14;94890.72;;;11.28;51.14
6393;BME280;3229;42.674;23.282;2023-02-19T01:45:42;94879.69;;;11.28;50.93
6393;BME280;3229;42.674;23.282;2023-02-19T01:48:11;94898.25;;;11.30;51.06
6393;BME280;3229;42.674;23.282;2023-02-19T01:50:42;94911.22;;;11.28;50.90
6393;BME280;3229;42.674;23.282;2023-02-19T01:53:15;94903.53;;;11.28;51.09
6393;BME280;3229;42.674;23.282;2023-02-19T01:55:43;94910.53;;;11.26;51.04
6393;BME280;3229;42.674;23.282;2023-02-19T01:58:14;94907.44;;;11.23;51.19
6393;BME280;3229;42.674;23.282;2023-02-19T02:00:42;94901.22;;;11.25;51.26
6393;BME280;3229;42.674;23.282;2023-02-19T02:03:09;94903.94;;;11.24;51.14
6393;BME280;3229;42.674;23.282;2023-02-19T02:05:44;94894.66;;;11.23;51.20
6393;BME280;3229;42.674;23.282;2023-02-19T02:08:15;94882.13;;;11.10;51.15
6393;BME280;3229;42.674;23.282;2023-02-19T02:11:01;94890.44;;;11.22;51.32
6393;BME280;3229;42.674;23.282;2023-02-19T02:13:28;94860.31;;;11.06;51.30
6393;BME280;3229;42.674;23.282;2023-02-19T02:16:03;94842.13;;;10.99;51.18
6393;BME280;3229;42.674;23.282;2023-02-19T02:18:40;94886.28;;;11.21;51.27
6393;BME280;3229;42.674;23.282;2023-02-19T02:21:42;94886.28;;;11.21;51.41
6393;BME280;3229;42.674;23.282;2023-02-19T02:27:38;94897.63;;;11.18;51.29
6393;BME280;3229;42.674;23.282;2023-02-19T02:30:16;94899.50;;;11.16;51.33
6393;BME280;3229;42.674;23.282;2023-02-19T02:32:53;94896.94;;;11.16;51.34
6393;BME280;3229;42.674;23.282;2023-02-19T02:35:25;94908.13;;;11.15;51.29
6393;BME280;3229;42.674;23.282;2023-02-19T02:37:55;94907.31;;;11.15;51.61
6393;BME280;3229;42.674;23.282;2023-02-19T02:40:25;94905.81;;;11.12;51.55
6393;BME280;3229;42.674;23.282;2023-02-19T02:42:52;94888.03;;;11.01;51.60
6393;BME280;3229;42.674;23.282;2023-02-19T02:45:27;94906.78;;;11.11;51.33
6393;BME280;3229;42.674;23.282;2023-02-19T02:48:23;94910.13;;;11.12;51.43
6393;BME280;3229;42.674;23.282;2023-02-19T02:50:55;94904.38;;;11.10;51.45
6393;BME280;3229;42.674;23.282;2023-02-19T02:53:29;94898.28;;;11.11;51.42
6393;BME280;3229;42.674;23.282;2023-02-19T02:56:16;94908.66;;;11.09;51.40
6393;BME280;3229;42.674;23.282;2023-02-19T02:58:45;94905.28;;;11.09;51.52
6393;BME280;3229;42.674;23.282;2023-02-19T03:01:18;94891.13;;;11.04;51.45
6393;BME280;3229;42.674;23.282;2023-02-19T03:04:07;94896.00;;;11.08;51.54
6393;BME280;3229;42.674;23.282;2023-02-19T03:06:34;94898.69;;;11.06;51.58
6393;BME280;3229;42.674;23.282;2023-02-19T03:09:08;94916.63;;;11.06;51.58
6393;BME280;3229;42.674;23.282;2023-02-19T03:11:39;94913.38;;;11.04;51.78
6393;BME280;3229;42.674;23.282;2023-02-19T03:14:26;94909.19;;;11.03;51.60
6393;BME280;3229;42.674;23.282;2023-02-19T03:17:18;94900.97;;;10.99;51.55
6393;BME280;3229;42.674;23.282;2023-02-19T03:20:07;94905.44;;;10.97;51.74
6393;BME280;3229;42.674;23.282;2023-02-19T03:22:37;94901.25;;;10.96;51.60
6393;BME280;3229;42.674;23.282;2023-02-19T03:25:09;94910.00;;;10.94;51.67
6393;BME280;3229;42.674;23.282;2023-02-19T03:27:56;94917.81;;;10.92;51.63
6393;BME280;3229;42.674;23.282;2023-02-19T03:30:28;94917.00;;;10.92;51.64
6393;BME280;3229;42.674;23.282;2023-02-19T03:33:00;94940.16;;;10.90;51.69
6393;BME280;3229;42.674;23.282;2023-02-19T03:35:34;94915.50;;;10.70;51.89
6393;BME280;3229;42.674;23.282;2023-02-19T03:38:06;94940.44;;;10.87;51.86
6393;BME280;3229;42.674;23.282;2023-02-19T03:40:43;94940.03;;;10.82;51.86
6393;BME280;3229;42.674;23.282;2023-02-19T03:43:16;94947.56;;;10.84;51.91
6393;BME280;3229;42.674;23.282;2023-02-19T03:45:50;94948.50;;;10.83;51.92
6393;BME280;3229;42.674;23.282;2023-02-19T03:48:32;94941.78;;;10.82;51.95
6393;BME280;3229;42.674;23.282;2023-02-19T03:51:28;94915.25;;;10.63;52.25
6393;BME280;3229;42.674;23.282;2023-02-19T03:54:04;94948.78;;;10.79;51.80
6393;BME280;3229;42.674;23.282;2023-02-19T03:56:37;94949.16;;;10.75;51.74
6393;BME280;3229;42.674;23.282;2023-02-19T03:59:10;94956.72;;;10.76;52.06
6393;BME280;3229;42.674;23.282;2023-02-19T04:01:41;94950.00;;;10.75;52.04
6393;BME280;3229;42.674;23.282;2023-02-19T04:04:15;94952.81;;;10.72;52.13
6393;BME280;3229;42.674;23.282;2023-02-19T04:06:47;94925.56;;;10.52;52.08
6393;BME280;3229;42.674;23.282;2023-02-19T04:09:19;94956.31;;;10.71;52.20
6393;BME280;3229;42.674;23.282;2023-02-19T04:11:48;94949.84;;;10.67;52.07
6393;BME280;3229;42.674;23.282;2023-02-19T04:14:19;94961.44;;;10.71;52.20
6393;BME280;3229;42.674;23.282;2023-02-19T04:16:50;94950.63;;;10.58;52.31
6393;BME280;3229;42.674;23.282;2023-02-19T04:19:23;94972.56;;;10.70;52.30
6393;BME280;3229;42.674;23.282;2023-02-19T04:21:53;94966.50;;;10.62;52.28
6393;BME280;3229;42.674;23.282;2023-02-19T04:24:23;94961.91;;;10.55;52.18
6393;BME280;3229;42.674;23.282;2023-02-19T04:26:52;94967.06;;;10.65;52.13
6393;BME280;3229;42.674;23.282;2023-02-19T04:29:19;94966.50;;;10.62;52.03
6393;BME280;3229;42.674;23.282;2023-02-19T04:31:46;94968.81;;;10.65;52.24
6393;BME280;3229;42.674;23.282;2023-02-19T04:34:13;94972.44;;;10.62;52.24
6393;BME280;3229;42.674;23.282;2023-02-19T04:36:41;94969.19;;;10.60;52.21
6393;BME280;3229;42.674;23.282;2023-02-19T04:39:08;94970.16;;;10.59;52.25
6393;BME280;3229;42.674;23.282;2023-02-19T04:41:34;94978.63;;;10.60;52.20
6393;BME280;3229;42.674;23.282;2023-02-19T04:44:01;94975.38;;;10.58;52.22
6393;BME280;3229;42.674;23.282;2023-02-19T04:46:28;94980.63;;;10.56;52.26
6393;BME280;3229;42.674;23.282;2023-02-19T04:48:55;94984.13;;;10.55;52.25
6393;BME280;3229;42.674;23.282;2023-02-19T04:51:22;94979.97;;;10.54;52.50
6393;BME280;3229;42.674;23.282;2023-02-19T04:53:50;94986.84;;;10.53;52.33
6393;BME280;3229;42.674;23.282;2023-02-19T04:56:17;94992.06;;;10.52;52.42
6393;BME280;3229;42.674;23.282;2023-02-19T04:58:44;94987.09;;;10.50;52.49
6393;BME280;3229;42.674;23.282;2023-02-19T05:01:11;94981.56;;;10.45;52.26
6393;BME280;3229;42.674;23.282;2023-02-19T05:03:38;94975.19;;;10.40;52.32
6393;BME280;3229;42.674;23.282;2023-02-19T05:06:07;94997.31;;;10.50;52.47
6393;BME280;3229;42.674;23.282;2023-02-19T05:08:34;94986.53;;;10.47;52.25
6393;BME280;3229;42.674;23.282;2023-02-19T05:11:04;94991.38;;;10.50;52.37
6393;BME280;3229;42.674;23.282;2023-02-19T05:13:32;94988.69;;;10.51;52.38
6393;BME280;3229;42.674;23.282;2023-02-19T05:16:00;94988.56;;;10.53;52.23
6393;BME280;3229;42.674;23.282;2023-02-19T05:18:28;94983.19;;;10.56;52.28
6393;BME280;3229;42.674;23.282;2023-02-19T05:20:56;94965.50;;;10.43;52.10
6393;BME280;3229;42.674;23.282;2023-02-19T05:23:24;94964.56;;;10.44;52.33
6393;BME280;3229;42.674;23.282;2023-02-19T05:25:51;94989.41;;;10.63;52.40
6393;BME280;3229;42.674;23.282;2023-02-19T05:28:19;94981.34;;;10.68;52.17
6393;BME280;3229;42.674;23.282;2023-02-19T05:30:53;94991.03;;;10.74;51.91
6393;BME280;3229;42.674;23.282;2023-02-19T05:33:22;94988.88;;;10.79;52.01
6393;BME280;3229;42.674;23.282;2023-02-19T05:35:52;94987.03;;;10.91;52.01
6393;BME280;3229;42.674;23.282;2023-02-19T05:38:20;94995.41;;;11.02;51.53
6393;BME280;3229;42.674;23.282;2023-02-19T05:40:47;95005.50;;;11.14;51.41
6393;BME280;3229;42.674;23.282;2023-02-19T05:43:14;94997.56;;;11.26;51.36
6393;BME280;3229;42.674;23.282;2023-02-19T05:45:42;94971.72;;;11.20;51.11
6393;BME280;3229;42.674;23.282;2023-02-19T05:48:10;94960.41;;;11.32;51.07
6393;BME280;3229;42.674;23.282;2023-02-19T05:50:37;94963.75;;;11.42;51.05
6393;BME280;3229;42.674;23.282;2023-02-19T05:53:04;94996.19;;;11.80;50.80
6393;BME280;3229;42.674;23.282;2023-02-19T05:55:33;94991.47;;;11.95;50.77
6393;BME280;3229;42.674;23.282;2023-02-19T05:58:01;95003.72;;;12.11;50.82
6393;BME280;3229;42.674;23.282;2023-02-19T06:00:28;95010.94;;;12.25;50.48
6393;BME280;3229;42.674;23.282;2023-02-19T06:02:57;95020.47;;;12.43;50.52
6393;BME280;3229;42.674;23.282;2023-02-19T06:05:23;95030.78;;;12.61;50.29
6393;BME280;3229;42.674;23.282;2023-02-19T06:07:50;95036.13;;;12.77;50.28
6393;BME280;3229;42.674;23.282;2023-02-19T06:10:17;95033.75;;;12.93;50.11
6393;BME280;3229;42.674;23.282;2023-02-19T06:12:44;95008.88;;;12.94;49.99
6393;BME280;3229;42.674;23.282;2023-02-19T06:15:11;95045.88;;;13.28;49.78
6393;BME280;3229;42.674;23.282;2023-02-19T06:17:38;95051.16;;;13.45;49.73
6393;BME280;3229;42.674;23.282;2023-02-19T06:20:07;95051.31;;;13.61;49.75
6393;BME280;3229;42.674;23.282;2023-02-19T06:22:34;95048.22;;;13.75;49.48
6393;BME280;3229;42.674;23.282;2023-02-19T06:25:01;95046.88;;;13.89;49.50
6393;BME280;3229;42.674;23.282;2023-02-19T06:27:28;95051.19;;;14.06;49.39
6393;BME280;3229;42.674;23.282;2023-02-19T06:29:54;95047.91;;;14.22;49.17
6393;BME280;3229;42.674;23.282;2023-02-19T06:32:21;95043.34;;;14.34;49.18
6393;BME280;3229;42.674;23.282;2023-02-19T06:34:48;95045.06;;;14.51;48.90
6393;BME280;3229;42.674;23.282;2023-02-19T06:37:16;95044.84;;;14.71;48.98
6393;BME280;3229;42.674;23.282;2023-02-19T06:39:43;95044.28;;;14.93;48.57
6393;BME280;3229;42.674;23.282;2023-02-19T06:42:09;95039.22;;;15.18;48.59
6393;BME280;3229;42.674;23.282;2023-02-19T06:44:36;95042.00;;;15.49;48.24
6393;BME280;3229;42.674;23.282;2023-02-19T06:47:03;95046.75;;;15.86;48.13
6393;BME280;3229;42.674;23.282;2023-02-19T06:49:30;95021.88;;;16.10;47.95
6393;BME280;3229;42.674;23.282;2023-02-19T06:51:57;95052.13;;;16.73;47.77
6393;BME280;3229;42.674;23.282;2023-02-19T06:54:26;95040.78;;;17.13;47.57
6393;BME280;3229;42.674;23.282;2023-02-19T06:56:53;95050.00;;;17.70;47.13
6393;BME280;3229;42.674;23.282;2023-02-19T06:59:21;95051.59;;;18.17;46.60
6393;BME280;3229;42.674;23.282;2023-02-19T07:01:48;95044.69;;;18.62;47.05
6393;BME280;3229;42.674;23.282;2023-02-19T07:04:15;95055.31;;;19.26;58.07
6393;BME280;3229;42.674;23.282;2023-02-19T07:06:41;95057.72;;;19.85;56.62
6393;BME280;3229;42.674;23.282;2023-02-19T07:09:09;95062.72;;;20.58;55.25
6393;BME280;3229;42.674;23.282;2023-02-19T07:11:38;95062.03;;;21.18;53.91
6393;BME280;3229;42.674;23.282;2023-02-19T07:14:06;95070.03;;;21.71;52.74
6393;BME280;3229;42.674;23.282;2023-02-19T07:16:34;95065.69;;;22.18;51.18
6393;BME280;3229;42.674;23.282;2023-02-19T07:19:01;95071.72;;;22.59;50.18
6393;BME280;3229;42.674;23.282;2023-02-19T07:21:28;95055.41;;;22.96;49.19
6393;BME280;3229;42.674;23.282;2023-02-19T07:23:56;95050.22;;;23.35;48.12
6393;BME280;3229;42.674;23.282;2023-02-19T07:26:23;95049.31;;;23.67;48.04
6393;BME280;3229;42.674;23.282;2023-02-19T07:28:51;95055.47;;;24.04;47.56
6393;BME280;3229;42.674;23.282;2023-02-19T07:31:21;95054.44;;;24.37;46.88
6393;BME280;3229;42.674;23.282;2023-02-19T07:33:49;95055.97;;;24.70;46.45
6393;BME280;3229;42.674;23.282;2023-02-19T07:36:17;95046.22;;;24.95;46.04
6393;BME280;3229;42.674;23.282;2023-02-19T07:38:44;95041.28;;;25.24;45.44
6393;BME280;3229;42.674;23.282;2023-02-19T07:41:11;95041.19;;;25.49;43.86
6393;BME280;3229;42.674;23.282;2023-02-19T07:43:38;95045.69;;;25.72;43.01
6393;BME280;3229;42.674;23.282;2023-02-19T07:46:08;95041.44;;;25.89;42.61
6393;BME280;3229;42.674;23.282;2023-02-19T07:48:36;95054.47;;;26.08;42.59
6393;BME280;3229;42.674;23.282;2023-02-19T07:51:05;95047.44;;;26.20;42.18
6393;BME280;3229;42.674;23.282;2023-02-19T07:53:33;95044.59;;;26.33;41.55
6393;BME280;3229;42.674;23.282;2023-02-19T07:56:01;94982.09;;;26.07;41.62
6393;BME280;3229;42.674;23.282;2023-02-19T07:58:28;95031.72;;;26.55;41.02
6393;BME280;3229;42.674;23.282;2023-02-19T08:00:56;95029.56;;;26.64;41.03
6393;BME280;3229;42.674;23.282;2023-02-19T08:03:24;95029.22;;;26.72;40.90
6393;BME280;3229;42.674;23.282;2023-02-19T08:05:50;95038.56;;;26.80;40.93
6393;BME280;3229;42.674;23.282;2023-02-19T08:08:18;95031.59;;;26.85;40.59
6393;BME280;3229;42.674;23.282;2023-02-19T08:10:45;95037.19;;;26.89;40.44
6393;BME280;3229;42.674;23.282;2023-02-19T08:13:29;95033.66;;;26.95;40.66
6393;BME280;3229;42.674;23.282;2023-02-19T08:16:10;95035.34;;;27.01;40.61
6393;BME280;3229;42.674;23.282;2023-02-19T08:18:39;95034.88;;;27.04;40.11
6393;BME280;3229;42.674;23.282;2023-02-19T08:21:05;95022.31;;;27.06;40.34
6393;BME280;3229;42.674;23.282;2023-02-19T08:23:32;95031.69;;;27.02;40.33
6393;BME280;3229;42.674;23.282;2023-02-19T08:25:59;95034.66;;;26.94;40.81
6393;BME280;3229;42.674;23.282;2023-02-19T08:28:26;95034.47;;;26.84;40.93
6393;BME280;3229;42.674;23.282;2023-02-19T08:30:58;95027.63;;;26.71;40.76
6393;BME280;3229;42.674;23.282;2023-02-19T08:33:25;95035.75;;;26.58;40.83
6393;BME280;3229;42.674;23.282;2023-02-19T08:35:53;95021.56;;;26.35;40.50
6393;BME280;3229;42.674;23.282;2023-02-19T08:38:20;95028.75;;;26.28;40.69
6393;BME280;3229;42.674;23.282;2023-02-19T08:40:47;95032.84;;;26.12;40.84
6393;BME280;3229;42.674;23.282;2023-02-19T08:43:15;95026.63;;;25.95;40.42
6393;BME280;3229;42.674;23.282;2023-02-19T08:45:44;95004.69;;;25.66;40.48
6393;BME280;3229;42.674;23.282;2023-02-19T08:48:11;95028.13;;;25.61;40.60
6393;BME280;3229;42.674;23.282;2023-02-19T08:50:39;95029.78;;;25.43;40.47
6393;BME280;3229;42.674;23.282;2023-02-19T08:53:07;95017.50;;;25.25;40.35
6393;BME280;3229;42.674;23.282;2023-02-19T08:55:36;95013.06;;;25.08;40.50
6393;BME280;3229;42.674;23.282;2023-02-19T08:58:03;95012.06;;;24.90;40.34
6393;BME280;3229;42.674;23.282;2023-02-19T09:00:31;95006.59;;;24.73;40.71
6393;BME280;3229;42.674;23.282;2023-02-19T09:02:58;95008.19;;;24.56;40.29
6393;BME280;3229;42.674;23.282;2023-02-19T09:05:24;95013.78;;;24.41;40.56
6393;BME280;3229;42.674;23.282;2023-02-19T09:07:51;95001.22;;;24.25;40.34
6393;BME280;3229;42.674;23.282;2023-02-19T09:10:20;95002.56;;;24.09;40.59
6393;BME280;3229;42.674;23.282;2023-02-19T09:12:46;94993.25;;;23.95;40.66
6393;BME280;3229;42.674;23.282;2023-02-19T09:15:13;94998.16;;;23.85;40.32
6393;BME280;3229;42.674;23.282;2023-02-19T09:17:40;94982.56;;;23.71;40.34
6393;BME280;3229;42.674;23.282;2023-02-19T09:20:07;94983.81;;;23.62;40.48
6393;BME280;3229;42.674;23.282;2023-02-19T09:22:35;94987.66;;;23.53;40.42
6393;BME280;3229;42.674;23.282;2023-02-19T09:25:01;94992.56;;;23.43;40.17
6393;BME280;3229;42.674;23.282;2023-02-19T09:27:30;94989.63;;;23.33;40.41
6393;BME280;3229;42.674;23.282;2023-02-19T09:29:57;94950.81;;;23.04;40.31
6393;BME280;3229;42.674;23.282;2023-02-19T09:32:24;94980.69;;;23.15;40.69
6393;BME280;3229;42.674;23.282;2023-02-19T09:34:51;94987.72;;;23.08;40.36
6393;BME280;3229;42.674;23.282;2023-02-19T09:37:17;94978.53;;;22.99;40.34
6393;BME280;3229;42.674;23.282;2023-02-19T09:39:44;94973.94;;;22.94;40.24
6393;BME280;3229;42.674;23.282;2023-02-19T09:42:14;94990.22;;;22.90;40.01
6393;BME280;3229;42.674;23.282;2023-02-19T09:44:46;94980.16;;;22.87;40.34
6393;BME280;3229;42.674;23.282;2023-02-19T09:47:17;94975.56;;;22.82;40.31
6393;BME280;3229;42.674;23.282;2023-02-19T09:49:47;94975.97;;;22.79;40.21
6393;BME280;3229;42.674;23.282;2023-02-19T09:52:22;94965.97;;;22.76;40.14
6393;BME280;3229;42.674;23.282;2023-02-19T09:54:50;94960.94;;;22.74;40.37
6393;BME280;3229;42.674;23.282;2023-02-19T09:57:22;94958.56;;;22.73;40.23
6393;BME280;3229;42.674;23.282;2023-02-19T09:59:52;94952.13;;;22.75;40.12
6393;BME280;3229;42.674;23.282;2023-02-19T10:02:25;94942.28;;;22.77;40.15
6393;BME280;3229;42.674;23.282;2023-02-19T10:04:52;94940.25;;;22.79;40.15
6393;BME280;3229;42.674;23.282;2023-02-19T10:07:22;94939.28;;;22.81;39.84
6393;BME280;3229;42.674;23.282;2023-02-19T10:09:52;94929.41;;;22.83;39.90
6393;BME280;3229;42.674;23.282;2023-02-19T10:12:24;94924.81;;;22.85;39.85
6393;BME280;3229;42.674;23.282;2023-02-19T10:14:57;94914.38;;;22.85;39.88
6393;BME280;3229;42.674;23.282;2023-02-19T10:17:29;94908.94;;;22.86;40.08
6393;BME280;3229;42.674;23.282;2023-02-19T10:19:59;94899.53;;;22.85;39.95
6393;BME280;3229;42.674;23.282;2023-02-19T10:22:28;94899.53;;;22.85;39.76
6393;BME280;3229;42.674;23.282;2023-02-19T10:24:55;94901.34;;;22.85;40.04
6393;BME280;3229;42.674;23.282;2023-02-19T10:27:25;94887.69;;;22.83;39.91
6393;BME280;3229;42.674;23.282;2023-02-19T10:29:56;94878.31;;;22.75;39.50
6393;BME280;3229;42.674;23.282;2023-02-19T10:32:25;94873.94;;;22.69;39.92
6393;BME280;3229;42.674;23.282;2023-02-19T10:35:07;94869.75;;;22.61;39.75
6393;BME280;3229;42.674;23.282;2023-02-19T10:37:35;94873.38;;;22.60;39.70
6393;BME280;3229;42.674;23.282;2023-02-19T10:40:13;94866.16;;;22.56;40.03
6393;BME280;3229;42.674;23.282;2023-02-19T10:42:44;94802.19;;;22.15;39.90
6393;BME280;3229;42.674;23.282;2023-02-19T10:45:18;94850.56;;;22.49;39.96
6393;BME280;3229;42.674;23.282;2023-02-19T10:47:45;94842.78;;;22.42;39.98
6393;BME280;3229;42.674;23.282;2023-02-19T10:50:20;94829.75;;;22.42;39.91
6393;BME280;3229;42.674;23.282;2023-02-19T10:52:51;94822.75;;;22.36;39.99
6393;BME280;3229;42.674;23.282;2023-02-19T10:55:26;94829.56;;;22.37;39.89
6393;BME280;3229;42.674;23.282;2023-02-19T10:57:53;94826.34;;;22.35;39.97
6393;BME280;3229;42.674;23.282;2023-02-19T11:00:24;94817.97;;;22.33;39.89
6393;BME280;3229;42.674;23.282;2023-02-19T11:03:13;94810.16;;;22.33;39.88
6393;BME280;3229;42.674;23.282;2023-02-19T11:05:50;94807.72;;;22.32;39.87
6393;BME280;3229;42.674;23.282;2023-02-19T11:08:20;94800.13;;;22.30;39.93
6393;BME280;3229;42.674;23.282;2023-02-19T11:10:48;94797.75;;;22.28;39.90
6393;BME280;3229;42.674;23.282;2023-02-19T11:13:20;94798.09;;;22.32;39.63
6393;BME280;3229;42.674;23.282;2023-02-19T11:15:52;94794.69;;;22.32;39.84
6393;BME280;3229;42.674;23.282;2023-02-19T11:18:22;94780.47;;;22.34;39.70
6393;BME280;3229;42.674;23.282;2023-02-19T11:20:50;94777.63;;;22.36;39.87
6393;BME280;3229;42.674;23.282;2023-02-19T11:23:24;94743.03;;;22.22;39.73
6393;BME280;3229;42.674;23.282;2023-02-19T11:25:53;94770.00;;;22.41;39.83
6393;BME280;3229;42.674;23.282;2023-02-19T11:28:28;94769.59;;;22.44;39.74
6393;BME280;3229;42.674;23.282;2023-02-19T11:31:12;94766.56;;;22.47;39.39
6393;BME280;3229;42.674;23.282;2023-02-19T11:33:43;94704.22;;;22.14;39.57
6393;BME280;3229;42.674;23.282;2023-02-19T11:36:26;94746.72;;;22.46;39.60
6393;BME280;3229;42.674;23.282;2023-02-19T11:38:54;94748.53;;;22.45;39.54
6393;BME280;3229;42.674;23.282;2023-02-19T11:41:29;94744.53;;;22.43;39.49
6393;BME280;3229;42.674;23.282;2023-02-19T11:44:11;94741.13;;;22.42;39.43
6393;BME280;3229;42.674;23.282;2023-02-19T11:46:48;94731.13;;;22.39;39.42
6393;BME280;3229;42.674;23.282;2023-02-19T11:49:27;94728.50;;;22.39;39.46
6393;BME280;3229;42.674;23.282;2023-02-19T11:52:08;94721.72;;;22.38;39.30
6393;BME280;3229;42.674;23.282;2023-02-19T11:54:46;94729.75;;;22.37;39.45
6393;BME280;3229;42.674;23.282;2023-02-19T11:57:25;94718.72;;;22.35;39.47
6393;BME280;3229;42.674;23.282;2023-02-19T12:00:02;94711.13;;;22.33;39.33
6393;BME280;3229;42.674;23.282;2023-02-19T12:05:47;94702.31;;;22.27;39.30
6393;BME280;3229;42.674;23.282;2023-02-19T12:08:46;94699.72;;;22.27;39.41
6393;BME280;3229;42.674;23.282;2023-02-19T12:11:39;94685.56;;;22.17;39.47
6393;BME280;3229;42.674;23.282;2023-02-19T12:14:35;94697.75;;;22.23;39.32
6393;BME280;3229;42.674;23.282;2023-02-19T12:17:09;94694.34;;;22.22;39.47
6393;BME280;3229;42.674;23.282;2023-02-19T12:19:54;94680.75;;;22.20;39.33
6393;BME280;3229;42.674;23.282;2023-02-19T12:22:28;94673.13;;;22.19;39.60
6393;BME280;3229;42.674;23.282;2023-02-19T12:28:10;94647.97;;;21.99;39.36
6393;BME280;3229;42.674;23.282;2023-02-19T12:30:54;94650.91;;;22.16;39.36
6393;BME280;3229;42.674;23.282;2023-02-19T12:33:48;94651.91;;;22.15;39.51
6393;BME280;3229;42.674;23.282;2023-02-19T12:36:25;94646.28;;;22.12;39.15
6393;BME280;3229;42.674;23.282;2023-02-19T12:39:04;94645.50;;;22.11;39.32
6393;BME280;3229;42.674;23.282;2023-02-19T12:41:40;94625.06;;;22.08;39.18
6393;BME280;3229;42.674;23.282;2023-02-19T12:44:12;94629.28;;;22.09;39.31
6393;BME280;3229;42.674;23.282;2023-02-19T12:46:46;94633.69;;;22.09;39.38
6393;BME280;3229;42.674;23.282;2023-02-19T12:49:19;94618.47;;;22.05;39.22
6393;BME280;3229;42.674;23.282;2023-02-19T12:51:53;94614.50;;;22.03;39.35
6393;BME280;3229;42.674;23.282;2023-02-19T12:54:25;94609.28;;;22.03;39.47
6393;BME280;3229;42.674;23.282;2023-02-19T12:56:58;94579.56;;;21.86;39.46
6393;BME280;3229;42.674;23.282;2023-02-19T12:59:30;94599.28;;;22.00;39.30
6393;BME280;3229;42.674;23.282;2023-02-19T13:02:03;94598.50;;;21.99;39.13
6393;BME280;3229;42.674;23.282;2023-02-19T13:04:40;94597.88;;;21.97;39.35
6393;BME280;3229;42.674;23.282;2023-02-19T13:07:12;94593.13;;;21.94;39.52
6393;BME280;3229;42.674;23.282;2023-02-19T13:09:44;94591.50;;;21.93;39.42
6393;BME280;3229;42.674;23.282;2023-02-19T13:12:16;94586.72;;;21.90;39.47
6393;BME280;3229;42.674;23.282;2023-02-19T13:14:48;94592.56;;;21.86;39.29
6393;BME280;3229;42.674;23.282;2023-02-19T13:17:21;94581.38;;;21.85;39.37
6393;BME280;3229;42.674;23.282;2023-02-19T13:19:54;94579.38;;;21.81;39.42
6393;BME280;3229;42.674;23.282;2023-02-19T13:22:28;94417.16;;;20.85;39.36
6393;BME280;3229;42.674;23.282;2023-02-19T13:25:17;94566.00;;;21.77;39.62
6393;BME280;3229;42.674;23.282;2023-02-19T13:28:11;94558.19;;;21.77;39.55
6393;BME280;3229;42.674;23.282;2023-02-19T13:31:01;94550.56;;;21.75;39.35
6393;BME280;3229;42.674;23.282;2023-02-19T13:33:42;94552.59;;;21.73;39.44
6393;BME280;3229;42.674;23.282;2023-02-19T13:36:14;94556.00;;;21.74;39.53
6393;BME280;3229;42.674;23.282;2023-02-19T13:38:45;94542.19;;;21.73;39.44
6393;BME280;3229;42.674;23.282;2023-02-19T13:41:20;94541.38;;;21.73;39.44